sensor_id;sensor_type;location;lat;lon;timestamp;P1;durP1;ratioP1;P2;durP2;ratioP2
52724;SDS011;38621;52.830;6.914;2022-10-31T00:00:06;12.40;;;6.18;;
52724;SDS011;38621;52.830;6.914;2022-10-31T00:02:33;9.68;;;5.90;;
52724;SDS011;38621;52.830;6.914;2022-10-31T00:04:59;9.77;;;5.90;;
52724;SDS011;38621;52.830;6.914;2022-10-31T00:07:24;11.38;;;5.57;;
52724;SDS011;38621;52.830;6.914;2022-10-31T00:09:50;8.45;;;5.57;;
52724;SDS011;38621;52.830;6.914;2022-10-31T00:12:16;11.57;;;6.13;;
52724;SDS011;38621;52.830;6.914;2022-10-31T00:14:41;10.57;;;6.35;;
52724;SDS011;38621;52.830;6.914;2022-10-31T00:17:07;11.63;;;6.20;;
52724;SDS011;38621;52.830;6.914;2022-10-31T00:19:32;10.75;;;6.38;;
52724;SDS011;38621;52.830;6.914;2022-10-31T00:21:58;10.57;;;7.03;;
52724;SDS011;38621;52.830;6.914;2022-10-31T00:24:24;10.80;;;6.40;;
52724;SDS011;38621;52.830;6.914;2022-10-31T00:26:49;10.20;;;6.47;;
52724;SDS011;38621;52.830;6.914;2022-10-31T00:29:15;13.43;;;7.38;;
52724;SDS011;38621;52.830;6.914;2022-10-31T00:31:40;14.27;;;6.93;;
52724;SDS011;38621;52.830;6.914;2022-10-31T00:34:06;11.23;;;7.03;;
52724;SDS011;38621;52.830;6.914;2022-10-31T00:36:32;11.48;;;6.75;;
52724;SDS011;38621;52.830;6.914;2022-10-31T00:38:57;10.50;;;7.10;;
52724;SDS011;38621;52.830;6.914;2022-10-31T00:41:23;11.52;;;7.20;;
52724;SDS011;38621;52.830;6.914;2022-10-31T00:43:49;13.40;;;7.43;;
52724;SDS011;38621;52.830;6.914;2022-10-31T00:46:15;15.38;;;8.38;;
52724;SDS011;38621;52.830;6.914;2022-10-31T00:48:41;12.02;;;7.88;;
52724;SDS011;38621;52.830;6.914;2022-10-31T00:51:07;11.02;;;7.47;;
52724;SDS011;38621;52.830;6.914;2022-10-31T00:53:33;11.18;;;7.25;;
52724;SDS011;38621;52.830;6.914;2022-10-31T00:55:59;12.10;;;7.78;;
52724;SDS011;38621;52.830;6.914;2022-10-31T00:58:25;12.27;;;7.15;;
52724;SDS011;38621;52.830;6.914;2022-10-31T01:00:50;9.88;;;6.72;;
52724;SDS011;38621;52.830;6.914;2022-10-31T01:03:20;10.57;;;6.90;;
52724;SDS011;38621;52.830;6.914;2022-10-31T01:05:55;10.95;;;7.30;;
52724;SDS011;38621;52.830;6.914;2022-10-31T01:08:29;13.88;;;7.18;;
52724;SDS011;38621;52.830;6.914;2022-10-31T01:11:02;12.82;;;7.25;;
52724;SDS011;38621;52.830;6.914;2022-10-31T01:13:28;11.05;;;7.20;;
52724;SDS011;38621;52.830;6.914;2022-10-31T01:15:57;12.23;;;6.70;;
52724;SDS011;38621;52.830;6.914;2022-10-31T01:18:24;12.18;;;6.63;;
52724;SDS011;38621;52.830;6.914;2022-10-31T01:21:00;10.23;;;6.80;;
52724;SDS011;38621;52.830;6.914;2022-10-31T01:23:29;12.07;;;6.78;;
52724;SDS011;38621;52.830;6.914;2022-10-31T01:25:58;11.77;;;7.13;;
52724;SDS011;38621;52.830;6.914;2022-10-31T01:28:30;12.93;;;6.80;;
52724;SDS011;38621;52.830;6.914;2022-10-31T01:30:59;10.98;;;6.25;;
52724;SDS011;38621;52.830;6.914;2022-10-31T01:33:26;9.18;;;6.10;;
52724;SDS011;38621;52.830;6.914;2022-10-31T01:35:52;9.90;;;6.30;;
52724;SDS011;38621;52.830;6.914;2022-10-31T01:38:17;11.63;;;6.60;;
52724;SDS011;38621;52.830;6.914;2022-10-31T01:40:43;11.80;;;6.68;;
52724;SDS011;38621;52.830;6.914;2022-10-31T01:43:13;9.63;;;7.03;;
52724;SDS011;38621;52.830;6.914;2022-10-31T01:45:40;11.52;;;7.03;;
52724;SDS011;38621;52.830;6.914;2022-10-31T01:48:11;12.52;;;7.53;;
52724;SDS011;38621;52.830;6.914;2022-10-31T01:50:40;13.75;;;7.25;;
52724;SDS011;38621;52.830;6.914;2022-10-31T01:53:08;11.38;;;6.88;;
52724;SDS011;38621;52.830;6.914;2022-10-31T01:55:38;12.43;;;7.60;;
52724;SDS011;38621;52.830;6.914;2022-10-31T01:58:24;12.38;;;7.15;;
52724;SDS011;38621;52.830;6.914;2022-10-31T02:00:53;10.57;;;7.25;;
52724;SDS011;38621;52.830;6.914;2022-10-31T02:03:22;10.90;;;7.28;;
52724;SDS011;38621;52.830;6.914;2022-10-31T02:05:50;13.00;;;7.13;;
52724;SDS011;38621;52.830;6.914;2022-10-31T02:08:26;12.35;;;6.95;;
52724;SDS011;38621;52.830;6.914;2022-10-31T02:10:54;10.40;;;6.95;;
52724;SDS011;38621;52.830;6.914;2022-10-31T02:13:21;11.07;;;7.40;;
52724;SDS011;38621;52.830;6.914;2022-10-31T02:15:52;12.13;;;7.07;;
52724;SDS011;38621;52.830;6.914;2022-10-31T02:18:19;9.75;;;7.47;;
52724;SDS011;38621;52.830;6.914;2022-10-31T02:32:24;10.23;;;6.38;;
52724;SDS011;38621;52.830;6.914;2022-10-31T02:40:15;7.68;;;5.68;;
52724;SDS011;38621;52.830;6.914;2022-10-31T02:42:57;11.13;;;6.40;;
52724;SDS011;38621;52.830;6.914;2022-10-31T02:45:35;9.77;;;6.53;;
52724;SDS011;38621;52.830;6.914;2022-10-31T02:48:08;9.35;;;6.25;;
52724;SDS011;38621;52.830;6.914;2022-10-31T02:50:40;8.65;;;6.32;;
52724;SDS011;38621;52.830;6.914;2022-10-31T02:53:09;9.13;;;5.95;;
52724;SDS011;38621;52.830;6.914;2022-10-31T02:58:05;9.07;;;6.05;;
52724;SDS011;38621;52.830;6.914;2022-10-31T03:00:45;9.13;;;6.63;;
52724;SDS011;38621;52.830;6.914;2022-10-31T03:03:14;8.38;;;5.60;;
52724;SDS011;38621;52.830;6.914;2022-10-31T03:05:48;7.63;;;4.90;;
52724;SDS011;38621;52.830;6.914;2022-10-31T03:08:50;7.00;;;5.20;;
52724;SDS011;38621;52.830;6.914;2022-10-31T03:11:08;7.80;;;5.55;;
52724;SDS011;38621;52.830;6.914;2022-10-31T03:13:39;8.15;;;5.57;;
52724;SDS011;38621;52.830;6.914;2022-10-31T03:16:27;7.78;;;6.30;;
52724;SDS011;38621;52.830;6.914;2022-10-31T03:19:02;11.18;;;6.93;;
52724;SDS011;38621;52.830;6.914;2022-10-31T03:21:30;8.90;;;6.00;;
52724;SDS011;38621;52.830;6.914;2022-10-31T03:23:58;8.07;;;5.80;;
52724;SDS011;38621;52.830;6.914;2022-10-31T03:26:25;10.77;;;6.00;;
52724;SDS011;38621;52.830;6.914;2022-10-31T03:28:56;9.60;;;5.47;;
52724;SDS011;38621;52.830;6.914;2022-10-31T03:31:28;7.80;;;5.80;;
52724;SDS011;38621;52.830;6.914;2022-10-31T03:33:59;7.90;;;5.43;;
52724;SDS011;38621;52.830;6.914;2022-10-31T03:36:27;7.78;;;5.30;;
52724;SDS011;38621;52.830;6.914;2022-10-31T03:38:56;8.55;;;5.38;;
52724;SDS011;38621;52.830;6.914;2022-10-31T03:41:25;7.53;;;5.32;;
52724;SDS011;38621;52.830;6.914;2022-10-31T03:44:00;8.95;;;5.75;;
52724;SDS011;38621;52.830;6.914;2022-10-31T03:46:31;7.57;;;5.85;;
52724;SDS011;38621;52.830;6.914;2022-10-31T03:48:57;10.63;;;6.43;;
52724;SDS011;38621;52.830;6.914;2022-10-31T03:56:40;6.88;;;5.47;;
52724;SDS011;38621;52.830;6.914;2022-10-31T04:02:11;8.05;;;5.53;;
52724;SDS011;38621;52.830;6.914;2022-10-31T04:04:40;5.90;;;4.22;;
52724;SDS011;38621;52.830;6.914;2022-10-31T04:07:09;5.93;;;3.95;;
52724;SDS011;38621;52.830;6.914;2022-10-31T04:09:36;6.55;;;5.25;;
52724;SDS011;38621;52.830;6.914;2022-10-31T04:12:06;8.02;;;5.45;;
52724;SDS011;38621;52.830;6.914;2022-10-31T04:14:37;7.72;;;5.43;;
52724;SDS011;38621;52.830;6.914;2022-10-31T04:17:06;9.05;;;5.93;;
52724;SDS011;38621;52.830;6.914;2022-10-31T04:19:35;8.13;;;5.53;;
52724;SDS011;38621;52.830;6.914;2022-10-31T04:22:01;6.78;;;5.20;;
52724;SDS011;38621;52.830;6.914;2022-10-31T04:24:27;7.88;;;5.50;;
52724;SDS011;38621;52.830;6.914;2022-10-31T04:26:53;7.13;;;5.57;;
52724;SDS011;38621;52.830;6.914;2022-10-31T04:29:18;7.95;;;5.30;;
52724;SDS011;38621;52.830;6.914;2022-10-31T04:31:44;6.93;;;3.95;;
52724;SDS011;38621;52.830;6.914;2022-10-31T04:34:09;9.85;;;5.18;;
52724;SDS011;38621;52.830;6.914;2022-10-31T04:36:35;27.00;;;5.85;;
52724;SDS011;38621;52.830;6.914;2022-10-31T04:39:01;5.70;;;4.28;;
52724;SDS011;38621;52.830;6.914;2022-10-31T04:41:26;6.35;;;4.05;;
52724;SDS011;38621;52.830;6.914;2022-10-31T04:43:52;4.75;;;3.72;;
52724;SDS011;38621;52.830;6.914;2022-10-31T04:46:18;5.30;;;3.60;;
52724;SDS011;38621;52.830;6.914;2022-10-31T04:48:43;3.45;;;2.83;;
52724;SDS011;38621;52.830;6.914;2022-10-31T04:51:09;5.80;;;3.42;;
52724;SDS011;38621;52.830;6.914;2022-10-31T04:53:35;5.45;;;3.47;;
52724;SDS011;38621;52.830;6.914;2022-10-31T04:56:00;3.97;;;3.08;;
52724;SDS011;38621;52.830;6.914;2022-10-31T04:58:26;4.47;;;3.58;;
52724;SDS011;38621;52.830;6.914;2022-10-31T05:00:53;4.13;;;3.42;;
52724;SDS011;38621;52.830;6.914;2022-10-31T05:03:19;4.75;;;3.40;;
52724;SDS011;38621;52.830;6.914;2022-10-31T05:05:45;4.80;;;3.58;;
52724;SDS011;38621;52.830;6.914;2022-10-31T05:08:11;3.47;;;2.83;;
52724;SDS011;38621;52.830;6.914;2022-10-31T05:10:37;5.15;;;3.33;;
52724;SDS011;38621;52.830;6.914;2022-10-31T05:13:03;5.32;;;3.30;;
52724;SDS011;38621;52.830;6.914;2022-10-31T05:15:29;4.60;;;3.00;;
52724;SDS011;38621;52.830;6.914;2022-10-31T05:17:55;2.88;;;2.33;;
52724;SDS011;38621;52.830;6.914;2022-10-31T05:20:22;4.88;;;3.33;;
52724;SDS011;38621;52.830;6.914;2022-10-31T05:22:54;4.18;;;2.90;;
52724;SDS011;38621;52.830;6.914;2022-10-31T05:25:22;5.13;;;3.10;;
52724;SDS011;38621;52.830;6.914;2022-10-31T05:27:49;4.25;;;3.40;;
52724;SDS011;38621;52.830;6.914;2022-10-31T05:30:17;6.22;;;3.53;;
52724;SDS011;38621;52.830;6.914;2022-10-31T05:32:46;4.13;;;2.80;;
52724;SDS011;38621;52.830;6.914;2022-10-31T05:35:14;4.75;;;2.83;;
52724;SDS011;38621;52.830;6.914;2022-10-31T05:37:42;4.57;;;2.17;;
52724;SDS011;38621;52.830;6.914;2022-10-31T05:40:09;3.42;;;2.30;;
52724;SDS011;38621;52.830;6.914;2022-10-31T05:42:37;2.88;;;2.00;;
52724;SDS011;38621;52.830;6.914;2022-10-31T05:45:04;2.80;;;2.08;;
52724;SDS011;38621;52.830;6.914;2022-10-31T05:47:30;2.88;;;2.40;;
52724;SDS011;38621;52.830;6.914;2022-10-31T05:49:56;3.42;;;2.95;;
52724;SDS011;38621;52.830;6.914;2022-10-31T05:52:21;4.55;;;3.00;;
52724;SDS011;38621;52.830;6.914;2022-10-31T05:54:47;6.03;;;2.80;;
52724;SDS011;38621;52.830;6.914;2022-10-31T05:57:13;5.35;;;2.47;;
52724;SDS011;38621;52.830;6.914;2022-10-31T05:59:38;5.25;;;2.85;;
52724;SDS011;38621;52.830;6.914;2022-10-31T06:02:04;3.65;;;2.60;;
52724;SDS011;38621;52.830;6.914;2022-10-31T06:04:29;3.58;;;2.83;;
52724;SDS011;38621;52.830;6.914;2022-10-31T06:06:56;3.67;;;2.53;;
52724;SDS011;38621;52.830;6.914;2022-10-31T06:09:22;3.22;;;2.40;;
52724;SDS011;38621;52.830;6.914;2022-10-31T06:11:47;2.42;;;2.10;;
52724;SDS011;38621;52.830;6.914;2022-10-31T06:14:13;4.20;;;2.03;;
52724;SDS011;38621;52.830;6.914;2022-10-31T06:16:39;3.42;;;2.13;;
52724;SDS011;38621;52.830;6.914;2022-10-31T06:19:05;3.45;;;2.40;;
52724;SDS011;38621;52.830;6.914;2022-10-31T06:21:30;3.40;;;2.50;;
52724;SDS011;38621;52.830;6.914;2022-10-31T06:23:56;3.05;;;2.42;;
52724;SDS011;38621;52.830;6.914;2022-10-31T06:26:22;4.45;;;2.83;;
52724;SDS011;38621;52.830;6.914;2022-10-31T06:28:48;3.30;;;2.70;;
52724;SDS011;38621;52.830;6.914;2022-10-31T06:31:13;3.65;;;2.97;;
52724;SDS011;38621;52.830;6.914;2022-10-31T06:33:40;4.22;;;3.20;;
52724;SDS011;38621;52.830;6.914;2022-10-31T06:36:07;4.13;;;2.85;;
52724;SDS011;38621;52.830;6.914;2022-10-31T06:38:33;3.40;;;2.63;;
52724;SDS011;38621;52.830;6.914;2022-10-31T06:41:02;5.80;;;3.90;;
52724;SDS011;38621;52.830;6.914;2022-10-31T06:43:32;3.45;;;2.92;;
52724;SDS011;38621;52.830;6.914;2022-10-31T06:46:01;4.38;;;3.13;;
52724;SDS011;38621;52.830;6.914;2022-10-31T06:48:28;3.58;;;2.90;;
52724;SDS011;38621;52.830;6.914;2022-10-31T06:50:57;4.38;;;2.67;;
52724;SDS011;38621;52.830;6.914;2022-10-31T06:53:26;3.05;;;2.53;;
52724;SDS011;38621;52.830;6.914;2022-10-31T06:55:55;4.05;;;3.13;;
52724;SDS011;38621;52.830;6.914;2022-10-31T06:58:21;5.28;;;2.95;;
52724;SDS011;38621;52.830;6.914;2022-10-31T07:00:47;4.10;;;3.30;;
52724;SDS011;38621;52.830;6.914;2022-10-31T07:03:13;4.15;;;3.10;;
52724;SDS011;38621;52.830;6.914;2022-10-31T07:05:40;3.35;;;2.50;;
52724;SDS011;38621;52.830;6.914;2022-10-31T07:08:07;3.33;;;2.60;;
52724;SDS011;38621;52.830;6.914;2022-10-31T07:10:35;4.57;;;3.30;;
52724;SDS011;38621;52.830;6.914;2022-10-31T07:13:02;4.65;;;3.50;;
52724;SDS011;38621;52.830;6.914;2022-10-31T07:15:34;4.68;;;3.40;;
52724;SDS011;38621;52.830;6.914;2022-10-31T07:18:01;4.78;;;3.58;;
52724;SDS011;38621;52.830;6.914;2022-10-31T07:20:28;6.35;;;3.97;;
52724;SDS011;38621;52.830;6.914;2022-10-31T07:22:54;5.53;;;4.30;;
52724;SDS011;38621;52.830;6.914;2022-10-31T07:25:21;6.82;;;4.20;;
52724;SDS011;38621;52.830;6.914;2022-10-31T07:27:47;7.38;;;4.70;;
52724;SDS011;38621;52.830;6.914;2022-10-31T07:30:13;4.80;;;3.78;;
52724;SDS011;38621;52.830;6.914;2022-10-31T07:35:09;5.85;;;4.57;;
52724;SDS011;38621;52.830;6.914;2022-10-31T07:37:36;6.00;;;4.18;;
52724;SDS011;38621;52.830;6.914;2022-10-31T07:40:02;5.10;;;3.75;;
52724;SDS011;38621;52.830;6.914;2022-10-31T07:42:48;4.68;;;3.70;;
52724;SDS011;38621;52.830;6.914;2022-10-31T07:45:16;6.68;;;4.00;;
52724;SDS011;38621;52.830;6.914;2022-10-31T07:47:45;7.68;;;4.65;;
52724;SDS011;38621;52.830;6.914;2022-10-31T07:50:18;14.10;;;5.43;;
52724;SDS011;38621;52.830;6.914;2022-10-31T07:52:45;9.15;;;5.07;;
52724;SDS011;38621;52.830;6.914;2022-10-31T07:55:11;12.60;;;5.15;;
52724;SDS011;38621;52.830;6.914;2022-10-31T07:57:37;19.02;;;6.68;;
52724;SDS011;38621;52.830;6.914;2022-10-31T08:00:04;10.38;;;5.07;;
52724;SDS011;38621;52.830;6.914;2022-10-31T08:02:34;8.65;;;6.63;;
52724;SDS011;38621;52.830;6.914;2022-10-31T08:05:00;6.63;;;4.97;;
52724;SDS011;38621;52.830;6.914;2022-10-31T08:07:27;6.78;;;5.50;;
52724;SDS011;38621;52.830;6.914;2022-10-31T08:09:53;7.80;;;5.13;;
52724;SDS011;38621;52.830;6.914;2022-10-31T08:12:19;6.75;;;5.40;;
52724;SDS011;38621;52.830;6.914;2022-10-31T08:14:45;8.02;;;6.47;;
52724;SDS011;38621;52.830;6.914;2022-10-31T08:17:11;9.65;;;7.28;;
52724;SDS011;38621;52.830;6.914;2022-10-31T08:19:37;9.65;;;7.32;;
52724;SDS011;38621;52.830;6.914;2022-10-31T08:22:02;11.73;;;8.15;;
52724;SDS011;38621;52.830;6.914;2022-10-31T08:24:28;10.50;;;7.03;;
52724;SDS011;38621;52.830;6.914;2022-10-31T08:26:54;11.52;;;7.60;;
52724;SDS011;38621;52.830;6.914;2022-10-31T08:29:19;12.00;;;8.75;;
52724;SDS011;38621;52.830;6.914;2022-10-31T08:31:45;11.95;;;8.63;;
52724;SDS011;38621;52.830;6.914;2022-10-31T08:34:11;14.27;;;9.35;;
52724;SDS011;38621;52.830;6.914;2022-10-31T08:36:36;15.05;;;9.20;;
52724;SDS011;38621;52.830;6.914;2022-10-31T08:39:02;12.85;;;8.88;;
52724;SDS011;38621;52.830;6.914;2022-10-31T08:41:28;12.73;;;9.25;;
52724;SDS011;38621;52.830;6.914;2022-10-31T08:43:54;14.57;;;10.35;;
52724;SDS011;38621;52.830;6.914;2022-10-31T08:46:19;15.55;;;10.45;;
52724;SDS011;38621;52.830;6.914;2022-10-31T08:48:48;15.82;;;10.70;;
52724;SDS011;38621;52.830;6.914;2022-10-31T08:51:14;16.33;;;10.23;;
52724;SDS011;38621;52.830;6.914;2022-10-31T08:53:40;14.55;;;9.38;;
52724;SDS011;38621;52.830;6.914;2022-10-31T08:56:05;13.90;;;9.40;;
52724;SDS011;38621;52.830;6.914;2022-10-31T08:58:31;12.88;;;9.85;;
52724;SDS011;38621;52.830;6.914;2022-10-31T09:00:58;13.20;;;8.77;;
52724;SDS011;38621;52.830;6.914;2022-10-31T09:03:28;13.57;;;9.60;;
52724;SDS011;38621;52.830;6.914;2022-10-31T09:05:56;11.63;;;9.10;;
52724;SDS011;38621;52.830;6.914;2022-10-31T09:08:25;13.50;;;9.23;;
52724;SDS011;38621;52.830;6.914;2022-10-31T09:10:50;12.75;;;8.90;;
52724;SDS011;38621;52.830;6.914;2022-10-31T09:13:17;13.50;;;9.10;;
52724;SDS011;38621;52.830;6.914;2022-10-31T09:15:45;14.00;;;8.80;;
52724;SDS011;38621;52.830;6.914;2022-10-31T09:18:13;14.75;;;10.02;;
52724;SDS011;38621;52.830;6.914;2022-10-31T09:20:40;13.40;;;9.25;;
52724;SDS011;38621;52.830;6.914;2022-10-31T09:23:14;13.63;;;9.35;;
52724;SDS011;38621;52.830;6.914;2022-10-31T09:25:42;11.45;;;8.98;;
52724;SDS011;38621;52.830;6.914;2022-10-31T09:28:09;14.40;;;9.50;;
52724;SDS011;38621;52.830;6.914;2022-10-31T09:30:37;14.85;;;9.73;;
52724;SDS011;38621;52.830;6.914;2022-10-31T09:33:04;15.40;;;9.27;;
52724;SDS011;38621;52.830;6.914;2022-10-31T09:35:31;15.75;;;8.88;;
52724;SDS011;38621;52.830;6.914;2022-10-31T09:38:01;14.13;;;9.43;;
52724;SDS011;38621;52.830;6.914;2022-10-31T09:40:35;12.90;;;8.27;;
52724;SDS011;38621;52.830;6.914;2022-10-31T09:46:44;11.70;;;8.30;;
52724;SDS011;38621;52.830;6.914;2022-10-31T09:49:05;15.85;;;9.32;;
52724;SDS011;38621;52.830;6.914;2022-10-31T09:51:37;14.43;;;8.88;;
52724;SDS011;38621;52.830;6.914;2022-10-31T09:57:02;12.35;;;9.23;;
52724;SDS011;38621;52.830;6.914;2022-10-31T09:59:33;12.77;;;8.63;;
52724;SDS011;38621;52.830;6.914;2022-10-31T10:07:06;12.45;;;8.93;;
52724;SDS011;38621;52.830;6.914;2022-10-31T10:09:39;12.88;;;8.77;;
52724;SDS011;38621;52.830;6.914;2022-10-31T10:12:12;12.73;;;8.25;;
52724;SDS011;38621;52.830;6.914;2022-10-31T10:15:01;13.52;;;9.07;;
52724;SDS011;38621;52.830;6.914;2022-10-31T10:25:53;14.18;;;9.27;;
52724;SDS011;38621;52.830;6.914;2022-10-31T10:28:45;15.73;;;9.52;;
52724;SDS011;38621;52.830;6.914;2022-10-31T10:31:18;16.30;;;9.05;;
52724;SDS011;38621;52.830;6.914;2022-10-31T10:33:59;12.43;;;8.30;;
52724;SDS011;38621;52.830;6.914;2022-10-31T10:37:22;13.65;;;8.35;;
52724;SDS011;38621;52.830;6.914;2022-10-31T10:39:33;15.25;;;9.00;;
52724;SDS011;38621;52.830;6.914;2022-10-31T10:42:12;14.60;;;8.73;;
52724;SDS011;38621;52.830;6.914;2022-10-31T10:44:58;12.68;;;7.85;;
52724;SDS011;38621;52.830;6.914;2022-10-31T10:47:44;13.75;;;8.10;;
52724;SDS011;38621;52.830;6.914;2022-10-31T10:50:18;10.25;;;7.28;;
52724;SDS011;38621;52.830;6.914;2022-10-31T11:00:54;12.00;;;7.57;;
52724;SDS011;38621;52.830;6.914;2022-10-31T11:03:20;10.35;;;7.63;;
52724;SDS011;38621;52.830;6.914;2022-10-31T11:05:48;11.68;;;7.07;;
52724;SDS011;38621;52.830;6.914;2022-10-31T11:08:24;11.85;;;7.47;;
52724;SDS011;38621;52.830;6.914;2022-10-31T11:13:35;12.02;;;7.63;;
52724;SDS011;38621;52.830;6.914;2022-10-31T11:16:03;14.30;;;8.40;;
52724;SDS011;38621;52.830;6.914;2022-10-31T11:18:32;13.63;;;8.20;;
52724;SDS011;38621;52.830;6.914;2022-10-31T11:21:02;13.20;;;8.85;;
52724;SDS011;38621;52.830;6.914;2022-10-31T11:23:29;11.75;;;8.32;;
52724;SDS011;38621;52.830;6.914;2022-10-31T11:25:57;12.82;;;8.65;;
52724;SDS011;38621;52.830;6.914;2022-10-31T11:28:23;14.57;;;9.18;;
52724;SDS011;38621;52.830;6.914;2022-10-31T11:30:54;12.82;;;8.75;;
52724;SDS011;38621;52.830;6.914;2022-10-31T11:33:39;13.90;;;8.88;;
52724;SDS011;38621;52.830;6.914;2022-10-31T11:36:22;13.35;;;8.98;;
52724;SDS011;38621;52.830;6.914;2022-10-31T11:38:56;14.63;;;9.32;;
52724;SDS011;38621;52.830;6.914;2022-10-31T11:41:33;12.98;;;8.77;;
52724;SDS011;38621;52.830;6.914;2022-10-31T11:44:19;15.25;;;9.55;;
52724;SDS011;38621;52.830;6.914;2022-10-31T11:46:49;12.85;;;8.63;;
52724;SDS011;38621;52.830;6.914;2022-10-31T11:52:08;12.65;;;9.10;;
52724;SDS011;38621;52.830;6.914;2022-10-31T11:54:48;12.77;;;9.00;;
52724;SDS011;38621;52.830;6.914;2022-10-31T11:58:00;13.43;;;9.52;;
52724;SDS011;38621;52.830;6.914;2022-10-31T12:03:12;15.55;;;9.07;;
52724;SDS011;38621;52.830;6.914;2022-10-31T12:05:45;12.90;;;8.95;;
52724;SDS011;38621;52.830;6.914;2022-10-31T12:08:16;13.85;;;8.88;;
52724;SDS011;38621;52.830;6.914;2022-10-31T12:13:51;11.85;;;7.50;;
52724;SDS011;38621;52.830;6.914;2022-10-31T12:16:31;11.57;;;7.50;;
52724;SDS011;38621;52.830;6.914;2022-10-31T12:19:06;11.55;;;7.18;;
52724;SDS011;38621;52.830;6.914;2022-10-31T12:29:48;12.43;;;6.88;;
52724;SDS011;38621;52.830;6.914;2022-10-31T12:33:01;11.23;;;6.93;;
52724;SDS011;38621;52.830;6.914;2022-10-31T12:35:57;10.60;;;6.82;;
52724;SDS011;38621;52.830;6.914;2022-10-31T12:47:05;9.38;;;5.20;;
52724;SDS011;38621;52.830;6.914;2022-10-31T12:50:16;9.75;;;5.13;;
52724;SDS011;38621;52.830;6.914;2022-10-31T12:53:00;8.67;;;5.33;;
52724;SDS011;38621;52.830;6.914;2022-10-31T12:57:57;9.93;;;5.85;;
52724;SDS011;38621;52.830;6.914;2022-10-31T13:00:58;7.82;;;5.28;;
52724;SDS011;38621;52.830;6.914;2022-10-31T13:03:32;10.32;;;5.95;;
52724;SDS011;38621;52.830;6.914;2022-10-31T13:06:20;8.63;;;5.05;;
52724;SDS011;38621;52.830;6.914;2022-10-31T13:08:56;7.82;;;4.43;;
52724;SDS011;38621;52.830;6.914;2022-10-31T13:11:36;7.15;;;4.20;;
52724;SDS011;38621;52.830;6.914;2022-10-31T13:14:10;5.22;;;3.47;;
52724;SDS011;38621;52.830;6.914;2022-10-31T13:16:58;7.05;;;3.67;;
52724;SDS011;38621;52.830;6.914;2022-10-31T13:19:27;6.72;;;3.45;;
52724;SDS011;38621;52.830;6.914;2022-10-31T13:24:59;5.55;;;3.20;;
52724;SDS011;38621;52.830;6.914;2022-10-31T13:27:48;6.63;;;3.53;;
52724;SDS011;38621;52.830;6.914;2022-10-31T13:30:17;6.95;;;2.97;;
52724;SDS011;38621;52.830;6.914;2022-10-31T13:32:52;5.30;;;3.15;;
52724;SDS011;38621;52.830;6.914;2022-10-31T13:35:43;5.30;;;2.70;;
52724;SDS011;38621;52.830;6.914;2022-10-31T13:38:39;5.07;;;3.10;;
52724;SDS011;38621;52.830;6.914;2022-10-31T13:44:27;5.35;;;2.80;;
52724;SDS011;38621;52.830;6.914;2022-10-31T13:46:56;4.35;;;2.67;;
52724;SDS011;38621;52.830;6.914;2022-10-31T13:51:51;4.82;;;2.75;;
52724;SDS011;38621;52.830;6.914;2022-10-31T13:54:23;5.07;;;2.63;;
52724;SDS011;38621;52.830;6.914;2022-10-31T13:57:00;6.95;;;3.03;;
52724;SDS011;38621;52.830;6.914;2022-10-31T13:59:26;5.15;;;2.90;;
52724;SDS011;38621;52.830;6.914;2022-10-31T14:01:58;4.78;;;3.03;;
52724;SDS011;38621;52.830;6.914;2022-10-31T14:07:25;6.10;;;2.97;;
52724;SDS011;38621;52.830;6.914;2022-10-31T14:12:42;4.68;;;2.92;;
52724;SDS011;38621;52.830;6.914;2022-10-31T14:17:53;5.20;;;3.30;;
52724;SDS011;38621;52.830;6.914;2022-10-31T14:20:42;4.40;;;2.80;;
52724;SDS011;38621;52.830;6.914;2022-10-31T14:23:13;4.97;;;3.28;;
52724;SDS011;38621;52.830;6.914;2022-10-31T14:26:19;4.43;;;2.80;;
52724;SDS011;38621;52.830;6.914;2022-10-31T14:28:46;6.80;;;2.67;;
52724;SDS011;38621;52.830;6.914;2022-10-31T14:45:44;4.38;;;2.80;;
52724;SDS011;38621;52.830;6.914;2022-10-31T14:51:19;4.10;;;2.97;;
52724;SDS011;38621;52.830;6.914;2022-10-31T14:53:48;8.23;;;3.10;;
52724;SDS011;38621;52.830;6.914;2022-10-31T14:56:20;5.65;;;3.50;;
52724;SDS011;38621;52.830;6.914;2022-10-31T14:58:52;6.13;;;3.53;;
52724;SDS011;38621;52.830;6.914;2022-10-31T15:01:29;5.80;;;3.97;;
52724;SDS011;38621;52.830;6.914;2022-10-31T15:04:17;6.25;;;4.18;;
52724;SDS011;38621;52.830;6.914;2022-10-31T15:06:51;6.70;;;4.15;;
52724;SDS011;38621;52.830;6.914;2022-10-31T15:09:30;8.88;;;4.88;;
52724;SDS011;38621;52.830;6.914;2022-10-31T15:12:00;8.23;;;4.68;;
52724;SDS011;38621;52.830;6.914;2022-10-31T15:14:41;6.93;;;4.57;;
52724;SDS011;38621;52.830;6.914;2022-10-31T15:17:08;7.68;;;5.32;;
52724;SDS011;38621;52.830;6.914;2022-10-31T15:19:36;6.90;;;4.60;;
52724;SDS011;38621;52.830;6.914;2022-10-31T15:22:02;6.90;;;4.40;;
52724;SDS011;38621;52.830;6.914;2022-10-31T15:24:33;7.93;;;5.28;;
52724;SDS011;38621;52.830;6.914;2022-10-31T15:27:00;7.90;;;4.50;;
52724;SDS011;38621;52.830;6.914;2022-10-31T15:29:26;9.38;;;5.07;;
52724;SDS011;38621;52.830;6.914;2022-10-31T15:31:53;9.98;;;5.07;;
52724;SDS011;38621;52.830;6.914;2022-10-31T15:34:57;10.20;;;5.55;;
52724;SDS011;38621;52.830;6.914;2022-10-31T15:37:17;7.00;;;5.20;;
52724;SDS011;38621;52.830;6.914;2022-10-31T15:39:47;8.85;;;4.90;;
52724;SDS011;38621;52.830;6.914;2022-10-31T15:44:54;9.63;;;6.35;;
52724;SDS011;38621;52.830;6.914;2022-10-31T15:47:25;9.18;;;5.18;;
52724;SDS011;38621;52.830;6.914;2022-10-31T15:49:52;7.07;;;5.00;;
52724;SDS011;38621;52.830;6.914;2022-10-31T15:55:18;7.85;;;5.35;;
52724;SDS011;38621;52.830;6.914;2022-10-31T15:57:47;11.13;;;6.15;;
52724;SDS011;38621;52.830;6.914;2022-10-31T16:03:06;8.55;;;5.50;;
52724;SDS011;38621;52.830;6.914;2022-10-31T16:05:55;9.68;;;5.82;;
52724;SDS011;38621;52.830;6.914;2022-10-31T16:10:54;8.95;;;5.95;;
52724;SDS011;38621;52.830;6.914;2022-10-31T16:13:23;9.98;;;6.15;;
52724;SDS011;38621;52.830;6.914;2022-10-31T16:15:54;9.27;;;5.43;;
52724;SDS011;38621;52.830;6.914;2022-10-31T16:18:23;9.02;;;6.60;;
52724;SDS011;38621;52.830;6.914;2022-10-31T16:20:51;9.98;;;7.00;;
52724;SDS011;38621;52.830;6.914;2022-10-31T16:23:20;12.55;;;9.10;;
52724;SDS011;38621;52.830;6.914;2022-10-31T16:25:50;11.75;;;7.63;;
52724;SDS011;38621;52.830;6.914;2022-10-31T16:28:18;27.67;;;18.50;;
52724;SDS011;38621;52.830;6.914;2022-10-31T16:30:50;19.77;;;14.02;;
52724;SDS011;38621;52.830;6.914;2022-10-31T16:36:13;17.52;;;12.45;;
52724;SDS011;38621;52.830;6.914;2022-10-31T16:38:53;13.88;;;8.85;;
52724;SDS011;38621;52.830;6.914;2022-10-31T16:41:21;21.20;;;15.98;;
52724;SDS011;38621;52.830;6.914;2022-10-31T16:43:47;16.25;;;11.00;;
52724;SDS011;38621;52.830;6.914;2022-10-31T16:46:14;19.58;;;15.18;;
52724;SDS011;38621;52.830;6.914;2022-10-31T16:48:52;15.95;;;9.88;;
52724;SDS011;38621;52.830;6.914;2022-10-31T16:51:19;14.77;;;10.20;;
52724;SDS011;38621;52.830;6.914;2022-10-31T16:53:45;15.88;;;11.60;;
52724;SDS011;38621;52.830;6.914;2022-10-31T16:56:32;22.50;;;17.25;;
52724;SDS011;38621;52.830;6.914;2022-10-31T16:59:01;20.48;;;14.80;;
52724;SDS011;38621;52.830;6.914;2022-10-31T17:01:29;21.05;;;17.23;;
52724;SDS011;38621;52.830;6.914;2022-10-31T17:03:56;17.20;;;12.52;;
52724;SDS011;38621;52.830;6.914;2022-10-31T17:06:22;23.48;;;16.95;;
52724;SDS011;38621;52.830;6.914;2022-10-31T17:08:47;15.50;;;11.27;;
52724;SDS011;38621;52.830;6.914;2022-10-31T17:11:15;18.58;;;13.80;;
52724;SDS011;38621;52.830;6.914;2022-10-31T17:13:43;18.13;;;14.63;;
52724;SDS011;38621;52.830;6.914;2022-10-31T17:16:09;16.73;;;11.65;;